createdAt,value
2018-06-05T00:01:59.867Z,15.27
2018-06-05T00:04:28.581Z,16.20
2018-06-05T00:06:57.204Z,16.37
2018-06-05T00:09:25.875Z,17.00
2018-06-05T00:11:54.554Z,16.63
2018-06-05T00:14:23.182Z,16.17
2018-06-05T00:16:51.877Z,16.20
2018-06-05T00:19:20.515Z,16.77
2018-06-05T00:21:49.177Z,17.03
2018-06-05T00:24:17.838Z,16.97
2018-06-05T00:26:46.459Z,17.33
2018-06-05T00:29:15.082Z,17.03
2018-06-05T00:31:43.776Z,18.17
2018-06-05T00:34:12.519Z,17.80
2018-06-05T00:36:41.217Z,17.27
2018-06-05T00:39:09.838Z,19.27
2018-06-05T00:41:38.476Z,17.40
2018-06-05T00:44:07.146Z,18.33
2018-06-05T00:46:35.791Z,17.63
2018-06-05T00:49:04.438Z,18.87
2018-06-05T00:51:44.184Z,19.90
2018-06-05T00:54:12.956Z,18.47
2018-06-05T00:56:41.635Z,21.13
2018-06-05T00:59:10.242Z,20.60
2018-06-05T01:01:38.895Z,20.53
2018-06-05T01:04:07.621Z,19.60
2018-06-05T01:06:36.236Z,21.07
2018-06-05T01:09:07.324Z,20.07
2018-06-05T01:11:36.080Z,19.57
2018-06-05T01:14:04.864Z,20.03
2018-06-05T01:16:33.474Z,19.37
2018-06-05T01:19:02.129Z,20.50
2018-06-05T01:21:30.737Z,19.83
2018-06-05T01:23:59.402Z,20.07
2018-06-05T01:26:28.078Z,18.90
2018-06-05T01:28:56.766Z,19.50
2018-06-05T01:31:25.469Z,19.53
2018-06-05T01:33:54.217Z,20.23
2018-06-05T01:36:22.884Z,18.77
2018-06-05T01:38:51.546Z,20.37
2018-06-05T01:41:20.166Z,21.93
2018-06-05T01:43:48.862Z,20.33
2018-06-05T01:46:17.540Z,19.80
2018-06-05T01:48:46.204Z,20.30
2018-06-05T01:51:14.854Z,18.70
2018-06-05T01:53:43.534Z,17.83
2018-06-05T01:56:13.303Z,16.70
2018-06-05T01:58:41.924Z,16.87
2018-06-05T02:01:10.581Z,16.50
2018-06-05T02:03:39.237Z,16.30
2018-06-05T02:06:07.992Z,16.53
2018-06-05T02:08:36.703Z,16.97
2018-06-05T02:11:05.358Z,13.90
2018-06-05T02:16:07.967Z,12.40
2018-06-05T02:18:36.608Z,13.67
2018-06-05T02:21:05.252Z,13.30
2018-06-05T02:23:33.895Z,13.03
2018-06-05T02:26:02.522Z,12.80
2018-06-05T02:28:31.151Z,13.37
2018-06-05T02:30:59.804Z,14.03
2018-06-05T02:33:28.423Z,13.67
2018-06-05T02:35:57.064Z,13.90
2018-06-05T02:38:25.696Z,13.07
2018-06-05T02:40:54.442Z,13.23
2018-06-05T02:43:23.152Z,14.83
2018-06-05T02:45:51.864Z,14.67
2018-06-05T02:48:20.467Z,14.90
2018-06-05T02:50:49.143Z,14.00
2018-06-05T02:53:17.791Z,13.87
2018-06-05T02:55:46.427Z,14.33
2018-06-05T02:58:15.068Z,14.27
2018-06-05T03:00:43.700Z,15.47
2018-06-05T03:03:12.425Z,15.33
2018-06-05T03:05:41.156Z,15.23
2018-06-05T03:08:09.846Z,15.13
2018-06-05T03:10:38.495Z,15.03
2018-06-05T03:13:07.199Z,15.07
2018-06-05T03:15:35.837Z,14.73
2018-06-05T03:18:04.563Z,15.43
2018-06-05T03:20:33.256Z,14.90
2018-06-05T03:23:01.949Z,14.33
2018-06-05T03:25:30.592Z,15.40
2018-06-05T03:27:59.259Z,13.97
2018-06-05T03:30:27.893Z,15.50
2018-06-05T03:32:56.583Z,14.53
2018-06-05T03:35:25.270Z,15.10
2018-06-05T03:37:53.951Z,14.83
2018-06-05T03:40:22.586Z,14.63
2018-06-05T03:42:51.298Z,14.80
2018-06-05T03:45:19.950Z,14.70
2018-06-05T03:47:48.607Z,15.83
2018-06-05T03:50:17.257Z,16.33
2018-06-05T03:52:45.924Z,16.27
2018-06-05T03:55:14.547Z,15.27
2018-06-05T03:57:43.213Z,16.20
2018-06-05T04:00:11.927Z,15.73
2018-06-05T04:02:40.553Z,16.30
2018-06-05T04:05:09.219Z,15.60
2018-06-05T04:07:37.848Z,16.90
2018-06-05T04:10:06.635Z,16.30
2018-06-05T04:12:35.321Z,16.63
2018-06-05T04:15:04.078Z,17.80
2018-06-05T04:17:33.090Z,17.93
2018-06-05T04:20:01.816Z,17.77
2018-06-05T04:22:30.462Z,19.00
2018-06-05T04:24:59.137Z,18.47
2018-06-05T04:27:27.855Z,18.47
2018-06-05T04:29:56.486Z,18.60
2018-06-05T04:32:25.162Z,18.80
2018-06-05T04:34:53.825Z,18.10
2018-06-05T04:37:22.457Z,16.93
2018-06-05T04:39:51.146Z,17.53
2018-06-05T04:42:19.846Z,17.43
2018-06-05T04:44:48.510Z,18.23
2018-06-05T04:47:17.803Z,16.37
2018-06-05T04:49:46.578Z,17.03
2018-06-05T04:52:15.197Z,16.80
2018-06-05T04:54:43.840Z,14.47
2018-06-05T04:57:12.571Z,14.60
2018-06-05T04:59:41.181Z,14.50
2018-06-05T05:02:09.850Z,13.93
2018-06-05T05:04:38.513Z,13.70
2018-06-05T05:07:07.178Z,13.30
2018-06-05T05:09:35.834Z,13.27
2018-06-05T05:12:04.491Z,14.00
2018-06-05T05:14:33.158Z,14.97
2018-06-05T05:17:01.882Z,14.50
2018-06-05T05:19:30.551Z,14.17
2018-06-05T05:21:59.193Z,15.20
2018-06-05T05:24:27.815Z,15.43
2018-06-05T05:26:56.473Z,15.33
2018-06-05T05:29:25.098Z,15.97
2018-06-05T05:31:53.828Z,15.80
2018-06-05T05:34:22.496Z,16.43
2018-06-05T05:36:51.101Z,16.73
2018-06-05T05:39:19.747Z,16.77
2018-06-05T05:41:48.406Z,15.73
2018-06-05T05:44:17.067Z,16.63
2018-06-05T05:46:45.742Z,16.40
2018-06-05T05:49:14.397Z,15.23
2018-06-05T05:51:43.055Z,16.70
2018-06-05T05:54:11.686Z,16.87
2018-06-05T05:56:40.345Z,16.03
2018-06-05T05:59:09.016Z,16.47
2018-06-05T06:01:37.712Z,16.87
2018-06-05T06:04:06.383Z,17.50
2018-06-05T06:06:35.082Z,16.93
2018-06-05T06:09:04.057Z,17.30
2018-06-05T06:11:32.693Z,16.37
2018-06-05T06:14:01.414Z,17.13
2018-06-05T06:16:30.125Z,18.20
2018-06-05T06:18:58.867Z,18.10
2018-06-05T06:21:27.542Z,16.87
2018-06-05T06:23:56.210Z,16.83
2018-06-05T06:26:24.895Z,16.37
2018-06-05T06:28:53.518Z,18.63
2018-06-05T06:31:22.159Z,16.53
2018-06-05T06:33:50.848Z,17.80
2018-06-05T06:36:19.503Z,18.47
2018-06-05T06:38:48.151Z,18.40
2018-06-05T06:41:16.977Z,18.70
2018-06-05T06:43:45.642Z,18.93
2018-06-05T06:46:14.280Z,17.97
2018-06-05T06:48:42.984Z,17.83
2018-06-05T06:51:11.735Z,18.50
2018-06-05T06:53:40.403Z,16.70
2018-06-05T06:56:09.068Z,16.30
2018-06-05T06:58:37.722Z,17.57
2018-06-05T07:01:06.371Z,16.20
2018-06-05T07:03:35.132Z,16.20
2018-06-05T07:06:03.766Z,16.67
2018-06-05T07:08:32.399Z,14.40
2018-06-05T07:11:01.088Z,15.67
2018-06-05T07:13:29.750Z,16.03
2018-06-05T07:15:58.440Z,15.17
2018-06-05T07:18:27.479Z,15.63
2018-06-05T07:20:56.162Z,15.30
2018-06-05T07:23:24.902Z,15.50
2018-06-05T07:25:53.590Z,14.73
2018-06-05T07:28:22.286Z,13.93
2018-06-05T07:30:51.110Z,14.73
2018-06-05T07:33:19.748Z,13.70
2018-06-05T07:35:48.452Z,14.47
2018-06-05T07:38:17.057Z,14.73
2018-06-05T07:40:45.736Z,14.23
2018-06-05T07:43:14.671Z,13.40
2018-06-05T07:45:43.362Z,13.90
2018-06-05T07:48:12.077Z,11.27
2018-06-05T07:50:40.729Z,12.77
2018-06-05T07:53:09.362Z,13.80
2018-06-05T07:55:38.041Z,10.40
2018-06-05T07:58:06.746Z,10.73
2018-06-05T08:00:35.391Z,10.70
2018-06-05T08:03:04.039Z,9.97
2018-06-05T08:05:32.690Z,9.63
2018-06-05T08:08:01.347Z,9.10
2018-06-05T08:10:30.036Z,10.00
2018-06-05T08:12:58.675Z,9.30
2018-06-05T08:15:27.399Z,9.80
2018-06-05T08:17:56.053Z,9.70
2018-06-05T08:20:24.840Z,10.13
2018-06-05T08:22:55.587Z,10.40
2018-06-05T08:25:24.308Z,9.40
2018-06-05T08:27:52.956Z,11.20
2018-06-05T08:30:21.639Z,9.50
2018-06-05T08:32:50.261Z,8.40
2018-06-05T08:35:18.929Z,8.73
2018-06-05T08:37:47.548Z,9.30
2018-06-05T08:40:16.301Z,9.67
2018-06-05T08:42:44.989Z,6.93
2018-06-05T08:45:13.680Z,7.00
2018-06-05T08:47:42.273Z,7.77
2018-06-05T08:50:10.931Z,8.10
2018-06-05T08:52:39.583Z,6.53
2018-06-05T08:55:08.242Z,6.97
2018-06-05T08:57:36.886Z,7.17
2018-06-05T09:00:07.359Z,6.90
2018-06-05T09:02:36.053Z,6.62
2018-06-05T09:05:04.894Z,5.47
2018-06-05T09:07:33.525Z,5.97
2018-06-05T09:10:02.178Z,6.58
2018-06-05T09:12:30.806Z,6.90
2018-06-05T09:14:59.438Z,6.78
2018-06-05T09:17:28.046Z,6.83
2018-06-05T09:19:56.673Z,6.70
2018-06-05T09:22:25.354Z,7.05
2018-06-05T09:24:53.991Z,6.35
2018-06-05T09:27:22.621Z,6.08
2018-06-05T09:29:51.317Z,6.33
2018-06-05T09:32:20.262Z,6.20
2018-06-05T09:34:48.887Z,6.40
2018-06-05T09:37:17.510Z,6.50
2018-06-05T09:39:46.147Z,5.95
2018-06-05T09:42:14.808Z,6.35
2018-06-05T09:44:43.450Z,5.97
2018-06-05T09:47:12.118Z,5.85
2018-06-05T09:49:40.755Z,5.72
2018-06-05T09:52:09.398Z,5.35
2018-06-05T09:54:38.162Z,5.90
2018-06-05T09:57:06.809Z,5.90
2018-06-05T09:59:35.492Z,5.37
2018-06-05T10:02:04.155Z,5.95
2018-06-05T10:04:32.826Z,5.47
2018-06-05T10:07:01.509Z,4.90
2018-06-05T10:09:30.161Z,5.87
2018-06-05T10:11:58.847Z,4.85
2018-06-05T10:14:27.466Z,5.37
2018-06-05T10:16:56.139Z,5.42
2018-06-05T10:19:24.866Z,5.60
2018-06-05T10:21:53.556Z,5.92
2018-06-05T10:24:22.195Z,5.70
2018-06-05T10:26:50.866Z,5.03
2018-06-05T10:29:19.547Z,5.33
2018-06-05T10:31:48.215Z,5.10
2018-06-05T10:34:16.881Z,5.70
2018-06-05T10:36:45.498Z,5.45
2018-06-05T10:39:14.289Z,5.15
2018-06-05T10:41:43.079Z,5.03
2018-06-05T10:44:11.693Z,4.85
2018-06-05T10:46:40.482Z,5.08
2018-06-05T10:49:09.134Z,4.87
2018-06-05T10:51:37.776Z,5.28
2018-06-05T10:54:06.455Z,4.83
2018-06-05T10:56:35.134Z,5.25
2018-06-05T10:59:03.764Z,5.45
2018-06-05T11:01:32.414Z,4.87
2018-06-05T11:04:01.523Z,4.62
2018-06-05T11:06:30.295Z,4.90
2018-06-05T11:08:58.919Z,4.40
2018-06-05T11:11:27.558Z,4.53
2018-06-05T11:13:56.247Z,4.35
2018-06-05T11:16:24.969Z,4.85
2018-06-05T11:18:53.714Z,4.00
2018-06-05T11:21:22.356Z,4.20
2018-06-05T11:23:50.988Z,4.40
2018-06-05T11:26:19.635Z,4.10
2018-06-05T11:28:48.316Z,4.62
2018-06-05T11:31:16.975Z,5.10
2018-06-05T11:33:45.661Z,4.67
2018-06-05T11:36:14.316Z,4.80
2018-06-05T11:38:42.970Z,4.12
2018-06-05T11:41:11.616Z,4.67
2018-06-05T11:43:40.276Z,4.08
2018-06-05T11:46:08.970Z,4.28
2018-06-05T11:48:37.626Z,4.95
2018-06-05T11:51:06.250Z,3.83
2018-06-05T11:53:34.873Z,3.87
2018-06-05T11:56:03.590Z,4.00
2018-06-05T11:58:32.315Z,5.37
2018-06-05T12:01:00.990Z,4.78
2018-06-05T12:03:29.615Z,5.10
2018-06-05T12:05:58.366Z,4.58
2018-06-05T12:08:26.988Z,4.67
2018-06-05T12:10:55.652Z,4.08
2018-06-05T12:13:24.268Z,4.10
2018-06-05T12:15:52.867Z,4.47
2018-06-05T12:18:21.456Z,4.20
2018-06-05T12:20:50.084Z,4.08
2018-06-05T12:23:18.757Z,3.95
2018-06-05T12:25:47.419Z,4.60
2018-06-05T12:28:16.073Z,4.62
2018-06-05T12:30:44.738Z,4.85
2018-06-05T12:33:13.381Z,4.60
2018-06-05T12:35:42.033Z,4.65
2018-06-05T12:38:10.687Z,4.60
2018-06-05T12:40:39.302Z,5.10
2018-06-05T12:43:07.922Z,4.85
2018-06-05T12:45:36.530Z,4.40
2018-06-05T12:48:06.324Z,4.70
2018-06-05T12:50:34.989Z,4.47
2018-06-05T12:53:03.626Z,4.87
2018-06-05T12:55:32.244Z,4.60
2018-06-05T12:58:00.939Z,4.75
2018-06-05T13:00:29.596Z,5.15
2018-06-05T13:02:58.298Z,5.05
2018-06-05T13:05:27.140Z,5.05
2018-06-05T13:07:55.844Z,5.58
2018-06-05T13:10:24.463Z,7.03
2018-06-05T13:12:53.148Z,5.03
2018-06-05T13:15:21.841Z,5.50
2018-06-05T13:17:51.170Z,5.50
2018-06-05T13:20:19.881Z,5.30
2018-06-05T13:22:48.556Z,5.47
2018-06-05T13:25:17.167Z,5.47
2018-06-05T13:27:45.844Z,5.35
2018-06-05T13:30:14.553Z,5.75
2018-06-05T13:32:43.174Z,5.42
2018-06-05T13:35:11.809Z,5.67
2018-06-05T13:37:41.640Z,5.08
2018-06-05T13:40:10.266Z,5.22
2018-06-05T13:42:38.880Z,5.33
2018-06-05T13:45:07.503Z,5.83
2018-06-05T13:47:36.168Z,5.67
2018-06-05T13:50:04.938Z,5.55
2018-06-05T13:52:33.610Z,5.60
2018-06-05T13:55:02.254Z,5.53
2018-06-05T13:57:30.894Z,5.15
2018-06-05T13:59:59.546Z,5.30
2018-06-05T14:02:28.161Z,5.62
2018-06-05T14:04:56.866Z,5.90
2018-06-05T14:07:25.511Z,5.12
2018-06-05T14:09:54.179Z,5.67
2018-06-05T14:12:22.864Z,5.83
2018-06-05T14:14:51.542Z,5.10
2018-06-05T14:17:20.317Z,5.78
2018-06-05T14:19:48.968Z,5.10
2018-06-05T14:22:17.598Z,5.30
2018-06-05T14:24:46.607Z,4.47
2018-06-05T14:27:15.262Z,4.65
2018-06-05T14:29:43.887Z,6.30
2018-06-05T14:32:12.473Z,7.05
2018-06-05T14:34:41.256Z,4.47
2018-06-05T14:37:09.957Z,4.53
2018-06-05T14:39:38.598Z,4.70
2018-06-05T14:42:07.321Z,4.60
2018-06-05T14:44:35.992Z,4.40
2018-06-05T14:47:04.667Z,5.20
2018-06-05T14:49:33.335Z,5.35
2018-06-05T14:52:27.266Z,5.85
2018-06-05T14:54:59.852Z,5.03
2018-06-05T14:57:29.090Z,5.47
2018-06-05T14:59:57.981Z,5.08
2018-06-05T15:02:26.713Z,4.95
2018-06-05T15:04:55.360Z,5.20
2018-06-05T15:07:24.034Z,5.40
2018-06-05T15:09:52.780Z,4.70
2018-06-05T15:12:21.415Z,5.40
2018-06-05T15:14:50.101Z,5.12
2018-06-05T15:17:18.752Z,5.42
2018-06-05T15:19:47.449Z,5.75
2018-06-05T15:22:16.238Z,5.55
2018-06-05T15:24:44.822Z,4.75
2018-06-05T15:27:13.570Z,5.15
2018-06-05T15:29:42.258Z,4.90
2018-06-05T15:32:10.938Z,5.37
2018-06-05T15:34:39.651Z,10.13
2018-06-05T15:37:08.319Z,5.37
2018-06-05T15:39:37.034Z,5.17
2018-06-05T15:42:05.711Z,5.03
2018-06-05T15:44:34.370Z,5.67
2018-06-05T15:47:03.038Z,4.80
2018-06-05T15:49:31.720Z,5.28
2018-06-05T15:52:00.393Z,5.20
2018-06-05T15:54:29.062Z,4.70
2018-06-05T15:56:57.689Z,5.30
2018-06-05T15:59:26.328Z,5.55
2018-06-05T16:01:54.986Z,5.20
2018-06-05T16:04:23.672Z,5.05
2018-06-05T16:06:52.369Z,5.58
2018-06-05T16:09:21.031Z,5.00
2018-06-05T16:11:49.688Z,5.30
2018-06-05T16:14:18.300Z,5.47
2018-06-05T16:16:47.007Z,5.40
2018-06-05T16:19:16.261Z,5.10
2018-06-05T16:21:44.886Z,6.40
2018-06-05T16:24:13.584Z,5.00
2018-06-05T16:26:42.438Z,6.30
2018-06-05T16:29:11.085Z,6.40
2018-06-05T16:31:39.817Z,5.33
2018-06-05T16:34:08.495Z,5.53
2018-06-05T16:36:37.206Z,9.60
2018-06-05T16:39:08.432Z,5.65
2018-06-05T16:41:37.135Z,5.72
2018-06-05T16:44:05.817Z,6.58
2018-06-05T16:46:34.448Z,6.00
2018-06-05T16:49:03.113Z,5.42
2018-06-05T16:52:23.480Z,5.62
2018-06-05T16:54:52.547Z,5.78
2018-06-05T16:57:22.982Z,6.20
2018-06-05T16:59:54.351Z,5.80
2018-06-05T17:02:23.076Z,5.20
2018-06-05T17:04:51.860Z,5.62
2018-06-05T17:07:21.499Z,6.45
2018-06-05T17:09:50.114Z,5.78
2018-06-05T17:12:19.622Z,5.65
2018-06-05T17:14:48.221Z,5.70
2018-06-05T17:17:16.955Z,5.83
2018-06-05T17:19:45.571Z,6.08
2018-06-05T17:22:14.365Z,6.58
2018-06-05T17:24:43.014Z,6.05
2018-06-05T17:27:11.690Z,6.42
2018-06-05T17:29:40.313Z,5.78
2018-06-05T17:32:08.983Z,6.10
2018-06-05T17:34:37.724Z,5.90
2018-06-05T17:37:06.398Z,6.10
2018-06-05T17:39:35.068Z,6.00
2018-06-05T17:42:03.702Z,6.72
2018-06-05T17:44:32.363Z,6.60
2018-06-05T17:47:01.038Z,6.12
2018-06-05T17:49:29.683Z,6.33
2018-06-05T17:51:58.337Z,6.05
2018-06-05T17:54:26.957Z,6.33
2018-06-05T17:56:55.579Z,6.55
2018-06-05T17:59:24.931Z,6.67
2018-06-05T18:01:53.573Z,6.65
2018-06-05T18:04:22.243Z,7.12
2018-06-05T18:06:50.898Z,6.75
2018-06-05T18:09:19.560Z,6.92
2018-06-05T18:11:48.348Z,6.87
2018-06-05T18:14:17.037Z,6.65
2018-06-05T18:16:45.731Z,6.60
2018-06-05T18:19:14.383Z,7.28
2018-06-05T18:21:43.109Z,6.97
2018-06-05T18:24:11.897Z,7.50
2018-06-05T18:26:40.578Z,17.30
2018-06-05T18:29:09.162Z,8.07
2018-06-05T18:31:38.051Z,8.77
2018-06-05T18:34:06.673Z,9.27
2018-06-05T18:36:35.432Z,9.27
2018-06-05T18:39:05.741Z,8.80
2018-06-05T18:41:34.482Z,9.50
2018-06-05T18:44:03.101Z,9.27
2018-06-05T18:46:31.860Z,9.27
2018-06-05T18:49:00.852Z,9.73
2018-06-05T18:51:29.493Z,10.27
2018-06-05T18:53:58.155Z,10.27
2018-06-05T18:56:26.834Z,11.07
2018-06-05T18:58:55.725Z,10.83
2018-06-05T19:01:24.496Z,11.20
2018-06-05T19:03:53.180Z,11.23
2018-06-05T19:06:21.892Z,11.27
2018-06-05T19:08:50.702Z,9.43
2018-06-05T19:11:19.398Z,10.97
2018-06-05T19:13:48.234Z,10.73
2018-06-05T19:16:16.985Z,10.73
2018-06-05T19:18:45.603Z,10.57
2018-06-05T19:21:15.185Z,13.97
2018-06-05T19:23:43.832Z,17.43
2018-06-05T19:26:12.490Z,20.40
2018-06-05T19:28:41.762Z,17.50
2018-06-05T19:31:10.815Z,9.90
2018-06-05T19:33:39.506Z,11.30
2018-06-05T19:36:08.224Z,13.17
2018-06-05T19:38:36.901Z,12.77
2018-06-05T19:41:05.545Z,10.83
2018-06-05T19:43:34.228Z,12.30
2018-06-05T19:46:02.883Z,12.47
2018-06-05T19:48:31.561Z,12.87
2018-06-05T19:51:00.227Z,12.50
2018-06-05T19:53:28.910Z,14.13
2018-06-05T19:55:58.267Z,12.47
2018-06-05T19:58:27.103Z,12.20
2018-06-05T20:00:55.822Z,14.17
2018-06-05T20:03:24.481Z,12.53
2018-06-05T20:05:53.446Z,12.30
2018-06-05T20:08:22.155Z,12.10
2018-06-05T20:10:51.003Z,12.90
2018-06-05T20:14:16.539Z,13.40
2018-06-05T20:17:05.118Z,12.43
2018-06-05T20:19:47.224Z,12.67
2018-06-05T20:28:18.976Z,12.60
2018-06-05T20:30:55.562Z,12.70
2018-06-05T20:37:10.235Z,12.20
2018-06-05T20:39:39.867Z,10.87
2018-06-05T20:42:08.525Z,10.70
2018-06-05T20:44:37.199Z,10.73
2018-06-05T20:47:05.944Z,10.77
2018-06-05T20:49:34.707Z,10.20
2018-06-05T20:52:03.440Z,10.40
2018-06-05T20:54:32.103Z,10.83
2018-06-05T20:57:00.759Z,11.17
2018-06-05T20:59:29.462Z,10.60
2018-06-05T21:01:58.132Z,9.13
2018-06-05T21:04:26.864Z,10.13
2018-06-05T21:06:55.619Z,10.73
2018-06-05T21:09:24.299Z,9.90
2018-06-05T21:11:52.950Z,10.10
2018-06-05T21:14:21.613Z,10.53
2018-06-05T21:16:50.302Z,10.13
2018-06-05T21:19:19.045Z,10.07
2018-06-05T21:21:47.685Z,9.77
2018-06-05T21:24:16.369Z,9.63
2018-06-05T21:26:45.173Z,10.37
2018-06-05T21:29:13.878Z,10.07
2018-06-05T21:31:42.687Z,10.17
2018-06-05T21:34:11.457Z,10.30
2018-06-05T21:36:40.114Z,10.37
2018-06-05T21:39:10.111Z,10.50
2018-06-05T21:41:39.390Z,11.00
2018-06-05T21:44:08.169Z,10.87
2018-06-05T21:46:36.827Z,10.57
2018-06-05T21:49:05.519Z,11.20
2018-06-05T21:51:34.318Z,11.07
2018-06-05T21:54:05.229Z,10.73
2018-06-05T21:56:34.576Z,10.97
2018-06-05T21:59:03.749Z,11.27
2018-06-05T22:01:34.191Z,10.93
2018-06-05T22:06:48.598Z,11.13
2018-06-05T22:09:17.288Z,10.53
2018-06-05T22:11:46.910Z,10.53
2018-06-05T22:14:17.379Z,10.87
2018-06-05T22:16:46.145Z,11.50
2018-06-05T22:19:17.907Z,11.57
2018-06-05T22:21:47.355Z,11.70
2018-06-05T22:24:16.311Z,11.70
2018-06-05T22:39:55.890Z,13.13
2018-06-05T22:42:24.638Z,12.57
2018-06-05T22:44:53.291Z,13.03
2018-06-05T22:47:21.903Z,12.37
2018-06-05T22:49:50.706Z,13.03
2018-06-05T22:52:19.377Z,13.27
2018-06-05T22:54:48.144Z,13.77
2018-06-05T22:57:17.704Z,12.77
2018-06-05T22:59:46.385Z,12.70
2018-06-05T23:02:15.237Z,13.10
2018-06-05T23:04:43.935Z,12.43
2018-06-05T23:07:12.682Z,12.53
2018-06-05T23:09:41.315Z,12.07
2018-06-05T23:12:10.038Z,12.10
2018-06-05T23:14:38.694Z,12.27
2018-06-05T23:17:07.379Z,11.93
2018-06-05T23:19:36.079Z,11.87
2018-06-05T23:22:04.749Z,11.10
2018-06-05T23:24:33.429Z,11.00
2018-06-05T23:27:02.070Z,11.60
2018-06-05T23:29:30.739Z,11.27
2018-06-05T23:31:59.375Z,11.30
2018-06-05T23:34:28.023Z,10.97
2018-06-05T23:36:56.660Z,10.57
2018-06-05T23:39:25.307Z,10.97
2018-06-05T23:41:53.976Z,11.23
2018-06-05T23:44:22.649Z,10.97
2018-06-05T23:46:51.303Z,10.33
2018-06-05T23:49:20.032Z,10.70
2018-06-05T23:51:48.764Z,10.73
2018-06-05T23:54:17.500Z,10.70
2018-06-05T23:56:46.176Z,11.13
2018-06-05T23:59:14.820Z,10.40
